sensor_id;sensor_type;location;lat;lon;timestamp;temperature;humidity
65036;DHT22;51603;49.300;8.880;2023-02-28T00:01:37;-0.80;99.90
65036;DHT22;51603;49.300;8.880;2023-02-28T00:04:03;-0.80;99.90
65036;DHT22;51603;49.300;8.880;2023-02-28T00:06:28;-0.90;99.90
65036;DHT22;51603;49.300;8.880;2023-02-28T00:08:54;-0.90;99.90
65036;DHT22;51603;49.300;8.880;2023-02-28T00:11:20;-0.90;99.90
65036;DHT22;51603;49.300;8.880;2023-02-28T00:13:47;-0.90;99.90
65036;DHT22;51603;49.300;8.880;2023-02-28T00:16:18;-0.90;99.90
65036;DHT22;51603;49.300;8.880;2023-02-28T00:18:43;-0.90;99.90
65036;DHT22;51603;49.300;8.880;2023-02-28T00:21:09;-0.90;99.90
65036;DHT22;51603;49.300;8.880;2023-02-28T00:23:35;-0.90;99.90
65036;DHT22;51603;49.300;8.880;2023-02-28T00:26:01;-0.90;99.90
65036;DHT22;51603;49.300;8.880;2023-02-28T00:28:26;-0.90;99.90
65036;DHT22;51603;49.300;8.880;2023-02-28T00:30:52;-0.90;99.90
65036;DHT22;51603;49.300;8.880;2023-02-28T00:33:18;-0.90;99.90
65036;DHT22;51603;49.300;8.880;2023-02-28T00:35:43;-0.90;99.90
65036;DHT22;51603;49.300;8.880;2023-02-28T00:38:12;-0.90;99.90
65036;DHT22;51603;49.300;8.880;2023-02-28T00:40:37;-0.90;99.90
65036;DHT22;51603;49.300;8.880;2023-02-28T00:43:03;-0.90;99.90
65036;DHT22;51603;49.300;8.880;2023-02-28T00:45:29;-0.90;99.90
65036;DHT22;51603;49.300;8.880;2023-02-28T00:47:55;-0.90;99.90
65036;DHT22;51603;49.300;8.880;2023-02-28T00:50:20;-0.90;99.90
65036;DHT22;51603;49.300;8.880;2023-02-28T00:52:47;-0.90;99.90
65036;DHT22;51603;49.300;8.880;2023-02-28T00:55:13;-1.00;99.90
65036;DHT22;51603;49.300;8.880;2023-02-28T00:57:38;-1.00;99.90
65036;DHT22;51603;49.300;8.880;2023-02-28T01:00:05;-1.00;99.90
65036;DHT22;51603;49.300;8.880;2023-02-28T01:02:31;-0.90;99.90
65036;DHT22;51603;49.300;8.880;2023-02-28T01:04:57;-0.90;99.90
65036;DHT22;51603;49.300;8.880;2023-02-28T01:07:23;-0.90;99.90
65036;DHT22;51603;49.300;8.880;2023-02-28T01:09:48;-0.90;99.90
65036;DHT22;51603;49.300;8.880;2023-02-28T01:12:14;-1.00;99.90
65036;DHT22;51603;49.300;8.880;2023-02-28T01:14:40;-1.00;99.90
65036;DHT22;51603;49.300;8.880;2023-02-28T01:17:05;-1.00;99.90
65036;DHT22;51603;49.300;8.880;2023-02-28T01:19:31;-1.00;99.90
65036;DHT22;51603;49.300;8.880;2023-02-28T01:21:57;-1.10;99.90
65036;DHT22;51603;49.300;8.880;2023-02-28T01:24:25;-1.10;99.90
65036;DHT22;51603;49.300;8.880;2023-02-28T01:26:50;-1.10;99.90
65036;DHT22;51603;49.300;8.880;2023-02-28T01:29:16;-1.20;99.90
65036;DHT22;51603;49.300;8.880;2023-02-28T01:31:41;-1.20;99.90
65036;DHT22;51603;49.300;8.880;2023-02-28T01:34:07;-1.20;99.90
65036;DHT22;51603;49.300;8.880;2023-02-28T01:36:32;-1.20;99.90
65036;DHT22;51603;49.300;8.880;2023-02-28T01:38:58;-1.20;99.90
65036;DHT22;51603;49.300;8.880;2023-02-28T01:41:27;-1.20;99.90
65036;DHT22;51603;49.300;8.880;2023-02-28T01:44:01;-1.20;99.90
65036;DHT22;51603;49.300;8.880;2023-02-28T01:46:32;-1.20;99.90
65036;DHT22;51603;49.300;8.880;2023-02-28T01:51:35;-1.20;99.90
65036;DHT22;51603;49.300;8.880;2023-02-28T01:54:07;-1.20;99.90
65036;DHT22;51603;49.300;8.880;2023-02-28T01:56:41;-1.30;99.90
65036;DHT22;51603;49.300;8.880;2023-02-28T01:59:09;-1.30;99.90
65036;DHT22;51603;49.300;8.880;2023-02-28T02:01:35;-1.30;99.90
65036;DHT22;51603;49.300;8.880;2023-02-28T02:04:02;-1.30;99.90
65036;DHT22;51603;49.300;8.880;2023-02-28T02:06:40;-1.40;99.90
65036;DHT22;51603;49.300;8.880;2023-02-28T02:09:07;-1.40;99.90
65036;DHT22;51603;49.300;8.880;2023-02-28T02:11:33;-1.40;99.90
65036;DHT22;51603;49.300;8.880;2023-02-28T02:16:52;-1.40;99.90
65036;DHT22;51603;49.300;8.880;2023-02-28T02:19:46;-1.40;99.90
65036;DHT22;51603;49.300;8.880;2023-02-28T02:28:09;-1.40;99.90
65036;DHT22;51603;49.300;8.880;2023-02-28T02:36:31;-1.40;99.90
65036;DHT22;51603;49.300;8.880;2023-02-28T02:39:19;-1.50;99.90
65036;DHT22;51603;49.300;8.880;2023-02-28T02:41:52;-1.40;99.90
65036;DHT22;51603;49.300;8.880;2023-02-28T02:44:20;-1.50;99.90
65036;DHT22;51603;49.300;8.880;2023-02-28T02:46:48;-1.50;99.90
65036;DHT22;51603;49.300;8.880;2023-02-28T02:49:52;-1.50;99.90
65036;DHT22;51603;49.300;8.880;2023-02-28T02:52:13;-1.50;99.90
65036;DHT22;51603;49.300;8.880;2023-02-28T02:54:45;-1.60;99.90
65036;DHT22;51603;49.300;8.880;2023-02-28T02:57:46;-1.60;99.90
65036;DHT22;51603;49.300;8.880;2023-02-28T03:00:14;-1.60;99.90
65036;DHT22;51603;49.300;8.880;2023-02-28T03:02:42;-1.70;99.90
65036;DHT22;51603;49.300;8.880;2023-02-28T03:05:30;-1.70;99.90
65036;DHT22;51603;49.300;8.880;2023-02-28T03:07:57;-1.70;99.90
65036;DHT22;51603;49.300;8.880;2023-02-28T03:10:36;-1.70;99.90
65036;DHT22;51603;49.300;8.880;2023-02-28T03:24:22;-1.70;99.90
65036;DHT22;51603;49.300;8.880;2023-02-28T03:26:58;-1.80;99.90
65036;DHT22;51603;49.300;8.880;2023-02-28T03:29:35;-1.80;99.90
65036;DHT22;51603;49.300;8.880;2023-02-28T03:32:14;-1.80;99.90
65036;DHT22;51603;49.300;8.880;2023-02-28T03:34:51;-1.80;99.90
65036;DHT22;51603;49.300;8.880;2023-02-28T03:37:21;-1.80;99.90
65036;DHT22;51603;49.300;8.880;2023-02-28T03:39:55;-1.80;99.90
65036;DHT22;51603;49.300;8.880;2023-02-28T03:42:29;-1.80;99.90
65036;DHT22;51603;49.300;8.880;2023-02-28T03:45:18;-1.80;99.90
65036;DHT22;51603;49.300;8.880;2023-02-28T03:47:50;-1.80;99.90
65036;DHT22;51603;49.300;8.880;2023-02-28T03:50:21;-1.80;99.90
65036;DHT22;51603;49.300;8.880;2023-02-28T03:56:17;-1.80;99.90
65036;DHT22;51603;49.300;8.880;2023-02-28T04:01:30;-1.80;99.90
65036;DHT22;51603;49.300;8.880;2023-02-28T04:03:57;-1.80;99.90
65036;DHT22;51603;49.300;8.880;2023-02-28T04:06:23;-1.80;99.90
65036;DHT22;51603;49.300;8.880;2023-02-28T04:08:50;-1.90;99.90
65036;DHT22;51603;49.300;8.880;2023-02-28T04:13:47;-1.80;99.90
65036;DHT22;51603;49.300;8.880;2023-02-28T04:16:13;-1.80;99.90
65036;DHT22;51603;49.300;8.880;2023-02-28T04:18:39;-1.80;99.90
65036;DHT22;51603;49.300;8.880;2023-02-28T04:21:06;-1.70;99.90
65036;DHT22;51603;49.300;8.880;2023-02-28T04:23:32;-1.80;99.90
65036;DHT22;51603;49.300;8.880;2023-02-28T04:25:58;-1.80;99.90
65036;DHT22;51603;49.300;8.880;2023-02-28T04:28:24;-1.70;99.90
65036;DHT22;51603;49.300;8.880;2023-02-28T04:31:02;-1.70;99.90
65036;DHT22;51603;49.300;8.880;2023-02-28T04:33:28;-1.70;99.90
65036;DHT22;51603;49.300;8.880;2023-02-28T04:36:05;-1.60;99.90
65036;DHT22;51603;49.300;8.880;2023-02-28T04:38:38;-1.60;99.90
65036;DHT22;51603;49.300;8.880;2023-02-28T04:41:04;-1.50;99.90
65036;DHT22;51603;49.300;8.880;2023-02-28T04:43:31;-1.50;99.90
65036;DHT22;51603;49.300;8.880;2023-02-28T04:45:58;-1.50;99.90
65036;DHT22;51603;49.300;8.880;2023-02-28T04:48:28;-1.50;99.90
65036;DHT22;51603;49.300;8.880;2023-02-28T04:50:53;-1.50;99.90
65036;DHT22;51603;49.300;8.880;2023-02-28T04:53:20;-1.40;99.90
65036;DHT22;51603;49.300;8.880;2023-02-28T04:55:46;-1.40;99.90
65036;DHT22;51603;49.300;8.880;2023-02-28T04:58:13;-1.40;99.90
65036;DHT22;51603;49.300;8.880;2023-02-28T05:00:39;-1.40;99.90
65036;DHT22;51603;49.300;8.880;2023-02-28T05:03:05;-1.40;99.90
65036;DHT22;51603;49.300;8.880;2023-02-28T05:05:30;-1.40;99.90
65036;DHT22;51603;49.300;8.880;2023-02-28T05:07:56;-1.40;99.90
65036;DHT22;51603;49.300;8.880;2023-02-28T05:10:22;-1.40;99.90
65036;DHT22;51603;49.300;8.880;2023-02-28T05:12:48;-1.40;99.90
65036;DHT22;51603;49.300;8.880;2023-02-28T05:15:15;-1.40;99.90
65036;DHT22;51603;49.300;8.880;2023-02-28T05:17:41;-1.40;99.90
65036;DHT22;51603;49.300;8.880;2023-02-28T05:20:07;-1.50;99.90
65036;DHT22;51603;49.300;8.880;2023-02-28T05:22:36;-1.50;99.90
65036;DHT22;51603;49.300;8.880;2023-02-28T05:25:03;-1.40;99.90
65036;DHT22;51603;49.300;8.880;2023-02-28T05:27:30;-1.50;99.90
65036;DHT22;51603;49.300;8.880;2023-02-28T05:29:56;-1.50;99.90
65036;DHT22;51603;49.300;8.880;2023-02-28T05:32:22;-1.50;99.90
65036;DHT22;51603;49.300;8.880;2023-02-28T05:34:48;-1.60;99.90
65036;DHT22;51603;49.300;8.880;2023-02-28T05:37:14;-1.70;99.90
65036;DHT22;51603;49.300;8.880;2023-02-28T05:39:40;-1.60;99.90
65036;DHT22;51603;49.300;8.880;2023-02-28T05:42:06;-1.60;99.90
65036;DHT22;51603;49.300;8.880;2023-02-28T05:44:32;-1.70;99.90
65036;DHT22;51603;49.300;8.880;2023-02-28T05:46:57;-1.70;99.90
65036;DHT22;51603;49.300;8.880;2023-02-28T05:49:23;-1.70;99.90
65036;DHT22;51603;49.300;8.880;2023-02-28T05:51:49;-1.70;99.90
65036;DHT22;51603;49.300;8.880;2023-02-28T05:54:14;-1.80;99.90
65036;DHT22;51603;49.300;8.880;2023-02-28T05:56:40;-1.80;99.90
65036;DHT22;51603;49.300;8.880;2023-02-28T05:59:09;-1.90;99.90
65036;DHT22;51603;49.300;8.880;2023-02-28T06:01:41;-1.90;99.90
65036;DHT22;51603;49.300;8.880;2023-02-28T06:04:09;-1.90;99.90
65036;DHT22;51603;49.300;8.880;2023-02-28T06:06:35;-1.90;99.90
65036;DHT22;51603;49.300;8.880;2023-02-28T06:09:05;-1.90;99.90
65036;DHT22;51603;49.300;8.880;2023-02-28T06:11:31;-1.90;99.90
65036;DHT22;51603;49.300;8.880;2023-02-28T06:13:59;-1.90;99.90
65036;DHT22;51603;49.300;8.880;2023-02-28T06:16:28;-1.90;99.90
65036;DHT22;51603;49.300;8.880;2023-02-28T06:18:54;-1.90;99.90
65036;DHT22;51603;49.300;8.880;2023-02-28T06:21:21;-1.80;99.90
65036;DHT22;51603;49.300;8.880;2023-02-28T06:23:47;-1.90;99.90
65036;DHT22;51603;49.300;8.880;2023-02-28T06:26:13;-1.80;99.90
65036;DHT22;51603;49.300;8.880;2023-02-28T06:28:39;-1.80;99.90
65036;DHT22;51603;49.300;8.880;2023-02-28T06:31:15;-1.80;99.90
65036;DHT22;51603;49.300;8.880;2023-02-28T06:33:42;-1.80;99.90
65036;DHT22;51603;49.300;8.880;2023-02-28T06:36:08;-1.80;99.90
65036;DHT22;51603;49.300;8.880;2023-02-28T06:38:35;-1.70;99.90
65036;DHT22;51603;49.300;8.880;2023-02-28T06:41:01;-1.70;99.90
65036;DHT22;51603;49.300;8.880;2023-02-28T06:43:32;-1.70;99.90
65036;DHT22;51603;49.300;8.880;2023-02-28T06:45:59;-1.70;99.90
65036;DHT22;51603;49.300;8.880;2023-02-28T06:48:26;-1.80;99.90
65036;DHT22;51603;49.300;8.880;2023-02-28T06:51:00;-1.70;99.90
65036;DHT22;51603;49.300;8.880;2023-02-28T06:53:26;-1.70;99.90
65036;DHT22;51603;49.300;8.880;2023-02-28T06:55:51;-1.70;99.90
65036;DHT22;51603;49.300;8.880;2023-02-28T06:58:17;-1.70;99.90
65036;DHT22;51603;49.300;8.880;2023-02-28T07:00:49;-1.60;99.90
65036;DHT22;51603;49.300;8.880;2023-02-28T07:03:15;-1.60;99.90
65036;DHT22;51603;49.300;8.880;2023-02-28T07:05:41;-1.60;99.90
65036;DHT22;51603;49.300;8.880;2023-02-28T07:08:06;-1.60;99.90
65036;DHT22;51603;49.300;8.880;2023-02-28T07:10:33;-1.50;99.90
65036;DHT22;51603;49.300;8.880;2023-02-28T07:12:59;-1.50;99.90
65036;DHT22;51603;49.300;8.880;2023-02-28T07:15:25;-1.50;99.90
65036;DHT22;51603;49.300;8.880;2023-02-28T07:17:51;-1.40;99.90
65036;DHT22;51603;49.300;8.880;2023-02-28T07:20:16;-1.40;99.90
65036;DHT22;51603;49.300;8.880;2023-02-28T07:22:42;-1.40;99.90
65036;DHT22;51603;49.300;8.880;2023-02-28T07:25:08;-1.30;99.90
65036;DHT22;51603;49.300;8.880;2023-02-28T07:27:34;-1.30;99.90
65036;DHT22;51603;49.300;8.880;2023-02-28T07:30:00;-1.20;99.90
65036;DHT22;51603;49.300;8.880;2023-02-28T07:32:27;-1.20;99.90
65036;DHT22;51603;49.300;8.880;2023-02-28T07:34:53;-1.10;99.90
65036;DHT22;51603;49.300;8.880;2023-02-28T07:37:19;-1.10;99.90
65036;DHT22;51603;49.300;8.880;2023-02-28T07:39:45;-1.10;99.90
65036;DHT22;51603;49.300;8.880;2023-02-28T07:42:11;-1.00;99.90
65036;DHT22;51603;49.300;8.880;2023-02-28T07:44:40;-1.00;99.90
65036;DHT22;51603;49.300;8.880;2023-02-28T07:47:08;-1.00;99.90
65036;DHT22;51603;49.300;8.880;2023-02-28T07:49:35;-0.90;99.90
65036;DHT22;51603;49.300;8.880;2023-02-28T07:52:02;-0.90;99.90
65036;DHT22;51603;49.300;8.880;2023-02-28T07:54:28;-0.80;99.90
65036;DHT22;51603;49.300;8.880;2023-02-28T07:56:54;-0.70;99.90
65036;DHT22;51603;49.300;8.880;2023-02-28T07:59:19;-0.70;99.90
65036;DHT22;51603;49.300;8.880;2023-02-28T08:01:45;-0.60;99.90
65036;DHT22;51603;49.300;8.880;2023-02-28T08:04:10;-0.60;99.90
65036;DHT22;51603;49.300;8.880;2023-02-28T08:06:36;-0.50;99.90
65036;DHT22;51603;49.300;8.880;2023-02-28T08:09:01;-0.40;99.90
65036;DHT22;51603;49.300;8.880;2023-02-28T08:11:27;-0.40;99.90
65036;DHT22;51603;49.300;8.880;2023-02-28T08:13:54;-0.30;99.90
65036;DHT22;51603;49.300;8.880;2023-02-28T08:16:19;-0.30;99.90
65036;DHT22;51603;49.300;8.880;2023-02-28T08:18:48;-0.20;99.90
65036;DHT22;51603;49.300;8.880;2023-02-28T08:21:14;-0.10;99.90
65036;DHT22;51603;49.300;8.880;2023-02-28T08:23:40;0.00;99.90
65036;DHT22;51603;49.300;8.880;2023-02-28T08:26:05;0.10;99.90
65036;DHT22;51603;49.300;8.880;2023-02-28T08:28:31;0.20;99.90
65036;DHT22;51603;49.300;8.880;2023-02-28T08:30:57;0.20;99.90
65036;DHT22;51603;49.300;8.880;2023-02-28T08:33:23;0.30;99.90
65036;DHT22;51603;49.300;8.880;2023-02-28T08:35:52;0.40;99.90
65036;DHT22;51603;49.300;8.880;2023-02-28T08:38:18;0.50;99.90
65036;DHT22;51603;49.300;8.880;2023-02-28T08:40:43;0.60;99.90
65036;DHT22;51603;49.300;8.880;2023-02-28T08:43:09;0.70;99.90
65036;DHT22;51603;49.300;8.880;2023-02-28T08:45:34;0.80;99.90
65036;DHT22;51603;49.300;8.880;2023-02-28T08:48:00;0.90;99.90
65036;DHT22;51603;49.300;8.880;2023-02-28T08:50:25;0.90;99.90
65036;DHT22;51603;49.300;8.880;2023-02-28T08:52:51;1.00;99.90
65036;DHT22;51603;49.300;8.880;2023-02-28T08:55:17;1.00;99.90
65036;DHT22;51603;49.300;8.880;2023-02-28T08:57:42;1.20;99.90
65036;DHT22;51603;49.300;8.880;2023-02-28T09:00:08;1.30;99.90
65036;DHT22;51603;49.300;8.880;2023-02-28T09:02:35;1.50;99.90
65036;DHT22;51603;49.300;8.880;2023-02-28T09:05:01;1.60;99.70
65036;DHT22;51603;49.300;8.880;2023-02-28T09:07:26;1.70;99.70
65036;DHT22;51603;49.300;8.880;2023-02-28T09:09:52;1.70;99.40
65036;DHT22;51603;49.300;8.880;2023-02-28T09:12:25;1.90;98.80
65036;DHT22;51603;49.300;8.880;2023-02-28T09:14:51;2.00;98.60
65036;DHT22;51603;49.300;8.880;2023-02-28T09:17:17;2.00;97.40
65036;DHT22;51603;49.300;8.880;2023-02-28T09:19:43;2.00;97.50
65036;DHT22;51603;49.300;8.880;2023-02-28T09:22:10;2.10;97.70
65036;DHT22;51603;49.300;8.880;2023-02-28T09:24:37;2.30;97.50
65036;DHT22;51603;49.300;8.880;2023-02-28T09:27:02;2.50;96.50
65036;DHT22;51603;49.300;8.880;2023-02-28T09:29:28;2.60;96.20
65036;DHT22;51603;49.300;8.880;2023-02-28T09:31:54;2.80;96.00
65036;DHT22;51603;49.300;8.880;2023-02-28T09:34:19;2.80;94.40
65036;DHT22;51603;49.300;8.880;2023-02-28T09:36:45;2.60;94.00
65036;DHT22;51603;49.300;8.880;2023-02-28T09:39:11;2.70;95.00
65036;DHT22;51603;49.300;8.880;2023-02-28T09:41:42;2.60;94.80
65036;DHT22;51603;49.300;8.880;2023-02-28T09:44:39;2.60;94.30
65036;DHT22;51603;49.300;8.880;2023-02-28T09:49:51;2.90;94.50
65036;DHT22;51603;49.300;8.880;2023-02-28T09:52:20;2.90;93.40
65036;DHT22;51603;49.300;8.880;2023-02-28T09:54:46;3.00;93.20
65036;DHT22;51603;49.300;8.880;2023-02-28T09:57:32;3.00;92.40
65036;DHT22;51603;49.300;8.880;2023-02-28T10:05:28;3.10;92.10
65036;DHT22;51603;49.300;8.880;2023-02-28T10:10:51;3.10;91.50
65036;DHT22;51603;49.300;8.880;2023-02-28T10:15:48;3.30;91.30
65036;DHT22;51603;49.300;8.880;2023-02-28T10:18:23;3.50;90.80
65036;DHT22;51603;49.300;8.880;2023-02-28T10:20:51;3.30;89.30
65036;DHT22;51603;49.300;8.880;2023-02-28T10:23:25;3.50;90.00
65036;DHT22;51603;49.300;8.880;2023-02-28T10:26:11;3.70;90.10
65036;DHT22;51603;49.300;8.880;2023-02-28T10:28:37;3.80;88.50
65036;DHT22;51603;49.300;8.880;2023-02-28T10:31:03;3.80;87.00
65036;DHT22;51603;49.300;8.880;2023-02-28T10:33:32;3.90;88.30
65036;DHT22;51603;49.300;8.880;2023-02-28T10:36:00;4.00;86.70
65036;DHT22;51603;49.300;8.880;2023-02-28T10:38:39;3.90;85.90
65036;DHT22;51603;49.300;8.880;2023-02-28T10:41:07;3.70;84.60
65036;DHT22;51603;49.300;8.880;2023-02-28T10:43:33;3.80;86.50
65036;DHT22;51603;49.300;8.880;2023-02-28T10:46:03;3.70;84.70
65036;DHT22;51603;49.300;8.880;2023-02-28T10:48:33;3.60;84.80
65036;DHT22;51603;49.300;8.880;2023-02-28T10:50:59;3.50;85.20
65036;DHT22;51603;49.300;8.880;2023-02-28T10:53:34;3.40;85.70
65036;DHT22;51603;49.300;8.880;2023-02-28T11:03:57;2.90;87.40
65036;DHT22;51603;49.300;8.880;2023-02-28T11:06:32;2.90;87.80
65036;DHT22;51603;49.300;8.880;2023-02-28T11:09:00;2.90;87.30
65036;DHT22;51603;49.300;8.880;2023-02-28T11:11:29;3.00;88.00
65036;DHT22;51603;49.300;8.880;2023-02-28T11:14:03;3.00;87.50
65036;DHT22;51603;49.300;8.880;2023-02-28T11:16:37;3.10;87.00
65036;DHT22;51603;49.300;8.880;2023-02-28T11:19:04;3.10;87.30
65036;DHT22;51603;49.300;8.880;2023-02-28T11:21:36;3.40;87.70
65036;DHT22;51603;49.300;8.880;2023-02-28T11:24:20;3.60;87.80
65036;DHT22;51603;49.300;8.880;2023-02-28T11:26:48;3.80;85.50
65036;DHT22;51603;49.300;8.880;2023-02-28T11:29:25;4.10;83.90
65036;DHT22;51603;49.300;8.880;2023-02-28T11:34:28;4.60;80.50
65036;DHT22;51603;49.300;8.880;2023-02-28T11:36:55;4.60;81.40
65036;DHT22;51603;49.300;8.880;2023-02-28T11:39:23;4.80;81.60
65036;DHT22;51603;49.300;8.880;2023-02-28T11:42:14;5.10;79.20
65036;DHT22;51603;49.300;8.880;2023-02-28T11:47:34;5.50;75.70
65036;DHT22;51603;49.300;8.880;2023-02-28T11:50:16;5.60;75.60
65036;DHT22;51603;49.300;8.880;2023-02-28T11:53:02;6.00;75.30
65036;DHT22;51603;49.300;8.880;2023-02-28T11:55:38;6.20;73.10
65036;DHT22;51603;49.300;8.880;2023-02-28T11:58:23;6.30;73.30
65036;DHT22;51603;49.300;8.880;2023-02-28T12:06:28;6.50;69.80
65036;DHT22;51603;49.300;8.880;2023-02-28T12:09:15;6.50;69.70
65036;DHT22;51603;49.300;8.880;2023-02-28T12:14:44;6.30;67.40
65036;DHT22;51603;49.300;8.880;2023-02-28T12:17:37;6.30;68.00
65036;DHT22;51603;49.300;8.880;2023-02-28T12:20:41;6.30;67.60
65036;DHT22;51603;49.300;8.880;2023-02-28T12:26:40;6.40;69.10
65036;DHT22;51603;49.300;8.880;2023-02-28T12:34:27;6.80;66.70
65036;DHT22;51603;49.300;8.880;2023-02-28T12:36:55;6.80;66.00
65036;DHT22;51603;49.300;8.880;2023-02-28T12:39:30;6.80;65.80
65036;DHT22;51603;49.300;8.880;2023-02-28T12:42:37;6.70;65.60
65036;DHT22;51603;49.300;8.880;2023-02-28T12:45:19;6.60;66.90
65036;DHT22;51603;49.300;8.880;2023-02-28T12:47:50;6.20;65.40
65036;DHT22;51603;49.300;8.880;2023-02-28T12:50:16;6.00;65.80
65036;DHT22;51603;49.300;8.880;2023-02-28T12:53:02;5.90;67.90
65036;DHT22;51603;49.300;8.880;2023-02-28T13:06:58;5.50;68.80
65036;DHT22;51603;49.300;8.880;2023-02-28T13:09:25;5.30;68.30
65036;DHT22;51603;49.300;8.880;2023-02-28T13:11:54;5.40;68.90
65036;DHT22;51603;49.300;8.880;2023-02-28T13:14:27;5.30;68.60
65036;DHT22;51603;49.300;8.880;2023-02-28T13:19:43;5.40;68.30
65036;DHT22;51603;49.300;8.880;2023-02-28T13:24:56;5.40;69.00
65036;DHT22;51603;49.300;8.880;2023-02-28T13:27:39;5.50;69.00
65036;DHT22;51603;49.300;8.880;2023-02-28T13:38:55;5.30;67.60
65036;DHT22;51603;49.300;8.880;2023-02-28T13:44:41;5.50;68.70
65036;DHT22;51603;49.300;8.880;2023-02-28T14:03:11;5.60;67.40
65036;DHT22;51603;49.300;8.880;2023-02-28T14:05:40;5.90;67.60
65036;DHT22;51603;49.300;8.880;2023-02-28T14:08:15;6.20;66.80
65036;DHT22;51603;49.300;8.880;2023-02-28T14:10:47;6.20;64.50
65036;DHT22;51603;49.300;8.880;2023-02-28T14:16:00;5.90;64.80
65036;DHT22;51603;49.300;8.880;2023-02-28T14:18:33;5.90;66.20
65036;DHT22;51603;49.300;8.880;2023-02-28T14:37:47;6.30;66.40
65036;DHT22;51603;49.300;8.880;2023-02-28T14:40:39;6.40;66.80
65036;DHT22;51603;49.300;8.880;2023-02-28T14:43:05;6.50;66.40
65036;DHT22;51603;49.300;8.880;2023-02-28T14:45:33;6.50;65.80
65036;DHT22;51603;49.300;8.880;2023-02-28T14:48:01;6.40;63.20
65036;DHT22;51603;49.300;8.880;2023-02-28T14:50:31;6.30;64.30
65036;DHT22;51603;49.300;8.880;2023-02-28T14:52:57;6.40;65.40
65036;DHT22;51603;49.300;8.880;2023-02-28T14:55:27;6.40;65.40
65036;DHT22;51603;49.300;8.880;2023-02-28T14:57:58;6.40;66.70
65036;DHT22;51603;49.300;8.880;2023-02-28T15:00:31;6.40;64.00
65036;DHT22;51603;49.300;8.880;2023-02-28T15:03:01;6.40;65.00
65036;DHT22;51603;49.300;8.880;2023-02-28T15:05:33;6.50;66.80
65036;DHT22;51603;49.300;8.880;2023-02-28T15:08:13;6.50;64.80
65036;DHT22;51603;49.300;8.880;2023-02-28T15:10:44;6.50;64.20
65036;DHT22;51603;49.300;8.880;2023-02-28T15:13:15;6.40;63.90
65036;DHT22;51603;49.300;8.880;2023-02-28T15:15:42;6.30;65.00
65036;DHT22;51603;49.300;8.880;2023-02-28T15:20:51;6.20;67.00
65036;DHT22;51603;49.300;8.880;2023-02-28T15:23:17;6.10;66.90
65036;DHT22;51603;49.300;8.880;2023-02-28T15:25:44;6.00;64.80
65036;DHT22;51603;49.300;8.880;2023-02-28T15:28:18;5.80;65.30
65036;DHT22;51603;49.300;8.880;2023-02-28T15:30:53;5.70;66.70
65036;DHT22;51603;49.300;8.880;2023-02-28T15:33:20;5.70;67.40
65036;DHT22;51603;49.300;8.880;2023-02-28T15:35:47;5.70;68.30
65036;DHT22;51603;49.300;8.880;2023-02-28T15:38:35;5.60;67.00
65036;DHT22;51603;49.300;8.880;2023-02-28T15:41:00;5.60;66.50
65036;DHT22;51603;49.300;8.880;2023-02-28T15:43:32;5.50;67.30
65036;DHT22;51603;49.300;8.880;2023-02-28T15:46:11;5.50;67.70
65036;DHT22;51603;49.300;8.880;2023-02-28T15:48:54;5.30;68.10
65036;DHT22;51603;49.300;8.880;2023-02-28T15:51:30;5.40;69.80
65036;DHT22;51603;49.300;8.880;2023-02-28T15:54:00;5.30;69.60
65036;DHT22;51603;49.300;8.880;2023-02-28T15:56:29;5.30;69.40
65036;DHT22;51603;49.300;8.880;2023-02-28T15:58:56;5.20;70.50
65036;DHT22;51603;49.300;8.880;2023-02-28T16:01:28;5.20;69.70
65036;DHT22;51603;49.300;8.880;2023-02-28T16:04:01;5.10;69.50
65036;DHT22;51603;49.300;8.880;2023-02-28T16:06:33;5.10;69.90
65036;DHT22;51603;49.300;8.880;2023-02-28T16:09:00;5.00;69.50
65036;DHT22;51603;49.300;8.880;2023-02-28T16:11:25;4.90;69.40
65036;DHT22;51603;49.300;8.880;2023-02-28T16:13:52;4.80;70.60
65036;DHT22;51603;49.300;8.880;2023-02-28T16:16:20;4.80;69.60
65036;DHT22;51603;49.300;8.880;2023-02-28T16:18:46;4.80;70.30
65036;DHT22;51603;49.300;8.880;2023-02-28T16:21:12;4.60;70.60
65036;DHT22;51603;49.300;8.880;2023-02-28T16:23:37;4.50;71.10
65036;DHT22;51603;49.300;8.880;2023-02-28T16:26:04;4.40;71.00
65036;DHT22;51603;49.300;8.880;2023-02-28T16:28:35;4.40;71.70
65036;DHT22;51603;49.300;8.880;2023-02-28T16:31:03;4.30;71.90
65036;DHT22;51603;49.300;8.880;2023-02-28T16:33:31;4.10;73.20
65036;DHT22;51603;49.300;8.880;2023-02-28T16:35:56;4.00;73.90
65036;DHT22;51603;49.300;8.880;2023-02-28T16:38:22;3.90;73.60
65036;DHT22;51603;49.300;8.880;2023-02-28T16:40:50;3.80;74.00
65036;DHT22;51603;49.300;8.880;2023-02-28T16:43:19;3.80;73.90
65036;DHT22;51603;49.300;8.880;2023-02-28T16:45:48;3.70;74.20
65036;DHT22;51603;49.300;8.880;2023-02-28T16:48:15;3.60;75.00
65036;DHT22;51603;49.300;8.880;2023-02-28T16:50:41;3.50;75.30
65036;DHT22;51603;49.300;8.880;2023-02-28T16:53:08;3.50;75.30
65036;DHT22;51603;49.300;8.880;2023-02-28T16:55:34;3.40;75.90
65036;DHT22;51603;49.300;8.880;2023-02-28T16:58:01;3.40;76.10
65036;DHT22;51603;49.300;8.880;2023-02-28T17:00:29;3.30;76.80
65036;DHT22;51603;49.300;8.880;2023-02-28T17:02:55;3.20;78.40
65036;DHT22;51603;49.300;8.880;2023-02-28T17:05:21;3.10;78.50
65036;DHT22;51603;49.300;8.880;2023-02-28T17:07:48;3.10;79.00
65036;DHT22;51603;49.300;8.880;2023-02-28T17:10:17;3.00;79.10
65036;DHT22;51603;49.300;8.880;2023-02-28T17:12:44;3.00;79.30
65036;DHT22;51603;49.300;8.880;2023-02-28T17:15:14;2.90;79.60
65036;DHT22;51603;49.300;8.880;2023-02-28T17:17:40;2.80;80.10
65036;DHT22;51603;49.300;8.880;2023-02-28T17:20:11;2.80;81.10
65036;DHT22;51603;49.300;8.880;2023-02-28T17:22:37;2.70;81.70
65036;DHT22;51603;49.300;8.880;2023-02-28T17:25:03;2.60;82.60
65036;DHT22;51603;49.300;8.880;2023-02-28T17:27:28;2.50;83.20
65036;DHT22;51603;49.300;8.880;2023-02-28T17:29:54;2.50;83.20
65036;DHT22;51603;49.300;8.880;2023-02-28T17:32:19;2.40;83.50
65036;DHT22;51603;49.300;8.880;2023-02-28T17:34:45;2.40;84.10
65036;DHT22;51603;49.300;8.880;2023-02-28T17:37:11;2.30;84.40
65036;DHT22;51603;49.300;8.880;2023-02-28T17:39:36;2.30;84.80
65036;DHT22;51603;49.300;8.880;2023-02-28T17:42:02;2.30;85.30
65036;DHT22;51603;49.300;8.880;2023-02-28T17:44:28;2.30;85.10
65036;DHT22;51603;49.300;8.880;2023-02-28T17:46:54;2.20;85.30
65036;DHT22;51603;49.300;8.880;2023-02-28T17:49:20;2.10;86.00
65036;DHT22;51603;49.300;8.880;2023-02-28T17:51:46;2.10;86.10
65036;DHT22;51603;49.300;8.880;2023-02-28T17:54:12;2.10;86.80
65036;DHT22;51603;49.300;8.880;2023-02-28T17:56:39;2.10;87.20
65036;DHT22;51603;49.300;8.880;2023-02-28T17:59:05;2.00;87.60
65036;DHT22;51603;49.300;8.880;2023-02-28T18:01:31;2.00;88.50
65036;DHT22;51603;49.300;8.880;2023-02-28T18:03:57;1.90;88.60
65036;DHT22;51603;49.300;8.880;2023-02-28T18:06:31;1.90;88.30
65036;DHT22;51603;49.300;8.880;2023-02-28T18:08:58;1.90;89.40
65036;DHT22;51603;49.300;8.880;2023-02-28T18:11:23;1.90;88.90
65036;DHT22;51603;49.300;8.880;2023-02-28T18:13:52;1.90;89.50
65036;DHT22;51603;49.300;8.880;2023-02-28T18:16:18;1.80;89.50
65036;DHT22;51603;49.300;8.880;2023-02-28T18:18:44;1.80;89.80